sensor_id;sensor_type;location;lat;lon;timestamp;pressure;altitude;pressure_sealevel;temperature;humidity
59104;BME280;51449;51.676;5.812;2023-09-08T00:01:33;101628.41;;;20.97;65.30
59104;BME280;51449;51.676;5.812;2023-09-08T00:03:55;101634.34;;;20.92;65.63
59104;BME280;51449;51.676;5.812;2023-09-08T00:06:17;101632.28;;;20.85;65.71
59104;BME280;51449;51.676;5.812;2023-09-08T00:08:38;101631.44;;;20.81;65.72
59104;BME280;51449;51.676;5.812;2023-09-08T00:11:01;101631.38;;;20.74;65.89
59104;BME280;51449;51.676;5.812;2023-09-08T00:13:23;101630.13;;;20.68;65.81
59104;BME280;51449;51.676;5.812;2023-09-08T00:15:45;101632.84;;;20.61;66.10
59104;BME280;51449;51.676;5.812;2023-09-08T00:18:06;101631.53;;;20.55;66.08
59104;BME280;51449;51.676;5.812;2023-09-08T00:20:28;101632.66;;;20.50;66.20
59104;BME280;51449;51.676;5.812;2023-09-08T00:22:50;101630.22;;;20.45;66.30
59104;BME280;51449;51.676;5.812;2023-09-08T00:25:12;101630.56;;;20.40;66.51
59104;BME280;51449;51.676;5.812;2023-09-08T00:27:34;101636.13;;;20.36;66.60
59104;BME280;51449;51.676;5.812;2023-09-08T00:29:56;101636.50;;;20.35;66.66
59104;BME280;51449;51.676;5.812;2023-09-08T00:32:17;101639.22;;;20.31;66.81
59104;BME280;51449;51.676;5.812;2023-09-08T00:34:40;101632.81;;;20.27;66.85
59104;BME280;51449;51.676;5.812;2023-09-08T00:37:02;101636.75;;;20.22;67.11
59104;BME280;51449;51.676;5.812;2023-09-08T00:39:28;101638.31;;;20.20;67.05
59104;BME280;51449;51.676;5.812;2023-09-08T00:41:50;101637.09;;;20.17;67.19
59104;BME280;51449;51.676;5.812;2023-09-08T00:44:12;101638.22;;;20.13;67.32
59104;BME280;51449;51.676;5.812;2023-09-08T00:46:34;101633.75;;;20.08;67.34
59104;BME280;51449;51.676;5.812;2023-09-08T00:48:57;101635.25;;;20.02;67.15
59104;BME280;51449;51.676;5.812;2023-09-08T00:51:18;101636.00;;;19.95;67.33
59104;BME280;51449;51.676;5.812;2023-09-08T00:53:42;101637.50;;;19.89;67.37
59104;BME280;51449;51.676;5.812;2023-09-08T00:56:04;101644.59;;;19.83;67.47
59104;BME280;51449;51.676;5.812;2023-09-08T00:58:28;101628.97;;;19.78;67.37
59104;BME280;51449;51.676;5.812;2023-09-08T01:00:50;101635.31;;;19.75;67.57
59104;BME280;51449;51.676;5.812;2023-09-08T01:03:12;101628.84;;;19.71;67.65
59104;BME280;51449;51.676;5.812;2023-09-08T01:05:35;101629.22;;;19.70;67.67
59104;BME280;51449;51.676;5.812;2023-09-08T01:07:59;101626.00;;;19.67;67.73
59104;BME280;51449;51.676;5.812;2023-09-08T01:10:21;101617.97;;;19.66;67.54
59104;BME280;51449;51.676;5.812;2023-09-08T01:12:44;101629.50;;;19.64;67.83
59104;BME280;51449;51.676;5.812;2023-09-08T01:15:07;101628.66;;;19.60;67.95
59104;BME280;51449;51.676;5.812;2023-09-08T01:17:29;101626.59;;;19.57;67.87
59104;BME280;51449;51.676;5.812;2023-09-08T01:19:54;101631.41;;;19.57;68.00
59104;BME280;51449;51.676;5.812;2023-09-08T01:22:30;101628.97;;;19.55;68.09
59104;BME280;51449;51.676;5.812;2023-09-08T01:25:12;101626.50;;;19.50;68.24
59104;BME280;51449;51.676;5.812;2023-09-08T01:27:45;101629.28;;;19.50;68.42
59104;BME280;51449;51.676;5.812;2023-09-08T01:30:08;101631.66;;;19.48;68.37
59104;BME280;51449;51.676;5.812;2023-09-08T01:32:32;101631.25;;;19.46;68.57
59104;BME280;51449;51.676;5.812;2023-09-08T01:34:57;101638.44;;;19.47;68.71
59104;BME280;51449;51.676;5.812;2023-09-08T01:37:23;101629.63;;;19.45;68.63
59104;BME280;51449;51.676;5.812;2023-09-08T01:39:45;101627.22;;;19.43;68.79
59104;BME280;51449;51.676;5.812;2023-09-08T01:42:07;101620.34;;;19.41;68.94
59104;BME280;51449;51.676;5.812;2023-09-08T01:44:29;101625.53;;;19.39;68.69
59104;BME280;51449;51.676;5.812;2023-09-08T01:46:51;101628.34;;;19.39;68.86
59104;BME280;51449;51.676;5.812;2023-09-08T01:49:18;101629.50;;;19.38;68.73
59104;BME280;51449;51.676;5.812;2023-09-08T01:51:39;101629.50;;;19.38;68.67
59104;BME280;51449;51.676;5.812;2023-09-08T01:54:01;101627.91;;;19.37;68.72
59104;BME280;51449;51.676;5.812;2023-09-08T01:56:23;101627.91;;;19.37;68.79
59104;BME280;51449;51.676;5.812;2023-09-08T01:58:45;101618.28;;;19.34;68.71
59104;BME280;51449;51.676;5.812;2023-09-08T02:01:07;101616.28;;;19.35;68.98
59104;BME280;51449;51.676;5.812;2023-09-08T02:03:29;101622.66;;;19.35;68.55
59104;BME280;51449;51.676;5.812;2023-09-08T02:05:51;101618.63;;;19.33;68.52
59104;BME280;51449;51.676;5.812;2023-09-08T02:08:13;101617.84;;;19.32;68.76
59104;BME280;51449;51.676;5.812;2023-09-08T02:10:39;101619.84;;;19.32;68.85
59104;BME280;51449;51.676;5.812;2023-09-08T02:13:02;101617.41;;;19.30;68.73
59104;BME280;51449;51.676;5.812;2023-09-08T02:15:24;101621.38;;;19.29;68.99
59104;BME280;51449;51.676;5.812;2023-09-08T02:17:50;101610.56;;;19.28;69.00
59104;BME280;51449;51.676;5.812;2023-09-08T02:20:15;101614.13;;;19.24;68.91
59104;BME280;51449;51.676;5.812;2023-09-08T02:22:40;101621.28;;;19.22;68.94
59104;BME280;51449;51.676;5.812;2023-09-08T02:25:02;101618.47;;;19.22;69.06
59104;BME280;51449;51.676;5.812;2023-09-08T02:27:24;101615.25;;;19.20;69.20
59104;BME280;51449;51.676;5.812;2023-09-08T02:29:45;101610.03;;;19.18;69.41
59104;BME280;51449;51.676;5.812;2023-09-08T02:32:07;101615.59;;;19.18;69.38
59104;BME280;51449;51.676;5.812;2023-09-08T02:34:29;101617.97;;;19.16;69.25
59104;BME280;51449;51.676;5.812;2023-09-08T02:36:51;101615.56;;;19.15;69.29
59104;BME280;51449;51.676;5.812;2023-09-08T02:39:17;101618.28;;;19.11;69.51
59104;BME280;51449;51.676;5.812;2023-09-08T02:41:39;101614.25;;;19.09;69.58
59104;BME280;51449;51.676;5.812;2023-09-08T02:44:01;101624.97;;;19.07;69.64
59104;BME280;51449;51.676;5.812;2023-09-08T02:46:23;101617.00;;;19.05;69.90
59104;BME280;51449;51.676;5.812;2023-09-08T02:48:46;101617.34;;;19.03;69.57
59104;BME280;51449;51.676;5.812;2023-09-08T02:51:08;101614.50;;;19.00;69.83
59104;BME280;51449;51.676;5.812;2023-09-08T02:53:30;101617.66;;;18.98;69.67
59104;BME280;51449;51.676;5.812;2023-09-08T02:55:52;101617.22;;;18.96;70.07
59104;BME280;51449;51.676;5.812;2023-09-08T02:58:14;101617.63;;;18.95;70.14
59104;BME280;51449;51.676;5.812;2023-09-08T03:00:35;101614.38;;;18.93;70.03
59104;BME280;51449;51.676;5.812;2023-09-08T03:02:57;101619.53;;;18.91;70.01
59104;BME280;51449;51.676;5.812;2023-09-08T03:05:20;101621.88;;;18.89;69.90
59104;BME280;51449;51.676;5.812;2023-09-08T03:07:42;101614.25;;;18.86;70.02
59104;BME280;51449;51.676;5.812;2023-09-08T03:10:04;101616.59;;;18.84;69.70
59104;BME280;51449;51.676;5.812;2023-09-08T03:12:27;101613.38;;;18.81;69.85
59104;BME280;51449;51.676;5.812;2023-09-08T03:14:48;101610.94;;;18.80;69.77
59104;BME280;51449;51.676;5.812;2023-09-08T03:17:11;101612.06;;;18.75;69.80
59104;BME280;51449;51.676;5.812;2023-09-08T03:19:34;101608.44;;;18.75;69.85
59104;BME280;51449;51.676;5.812;2023-09-08T03:21:56;101613.59;;;18.73;70.08
59104;BME280;51449;51.676;5.812;2023-09-08T03:24:17;101615.13;;;18.70;69.76
59104;BME280;51449;51.676;5.812;2023-09-08T03:26:39;101617.88;;;18.67;70.15
59104;BME280;51449;51.676;5.812;2023-09-08T03:29:02;101620.22;;;18.65;70.33
59104;BME280;51449;51.676;5.812;2023-09-08T03:31:25;101618.16;;;18.61;70.06
59104;BME280;51449;51.676;5.812;2023-09-08T03:33:48;101611.69;;;18.57;70.20
59104;BME280;51449;51.676;5.812;2023-09-08T03:36:10;101615.25;;;18.54;70.01
59104;BME280;51449;51.676;5.812;2023-09-08T03:38:32;101607.22;;;18.53;70.34
59104;BME280;51449;51.676;5.812;2023-09-08T03:40:54;101611.19;;;18.52;70.23
59104;BME280;51449;51.676;5.812;2023-09-08T03:43:17;101609.22;;;18.52;70.27
59104;BME280;51449;51.676;5.812;2023-09-08T03:45:39;101612.00;;;18.52;70.49
59104;BME280;51449;51.676;5.812;2023-09-08T03:48:01;101612.00;;;18.52;70.32
59104;BME280;51449;51.676;5.812;2023-09-08T03:50:23;101602.81;;;18.52;70.41
59104;BME280;51449;51.676;5.812;2023-09-08T03:52:45;101600.03;;;18.52;70.37
59104;BME280;51449;51.676;5.812;2023-09-08T03:55:08;101607.97;;;18.50;70.63
59104;BME280;51449;51.676;5.812;2023-09-08T03:57:29;101607.53;;;18.48;70.46
59104;BME280;51449;51.676;5.812;2023-09-08T03:59:51;101609.88;;;18.46;70.66
59104;BME280;51449;51.676;5.812;2023-09-08T04:02:13;101606.28;;;18.45;70.72
59104;BME280;51449;51.676;5.812;2023-09-08T04:04:34;101611.81;;;18.42;70.88
59104;BME280;51449;51.676;5.812;2023-09-08T04:06:56;101610.19;;;18.40;70.86
59104;BME280;51449;51.676;5.812;2023-09-08T04:09:18;101606.94;;;18.38;70.72
59104;BME280;51449;51.676;5.812;2023-09-08T04:11:40;101606.13;;;18.38;71.08
59104;BME280;51449;51.676;5.812;2023-09-08T04:14:03;101604.91;;;18.35;71.05
59104;BME280;51449;51.676;5.812;2023-09-08T04:16:26;101606.88;;;18.35;70.92
59104;BME280;51449;51.676;5.812;2023-09-08T04:18:47;101606.09;;;18.34;71.12
59104;BME280;51449;51.676;5.812;2023-09-08T04:21:09;101603.66;;;18.33;71.16
59104;BME280;51449;51.676;5.812;2023-09-08T04:23:31;101610.84;;;18.34;71.24
59104;BME280;51449;51.676;5.812;2023-09-08T04:25:53;101599.63;;;18.30;71.28
59104;BME280;51449;51.676;5.812;2023-09-08T04:28:15;101607.53;;;18.28;71.11
59104;BME280;51449;51.676;5.812;2023-09-08T04:30:37;101599.16;;;18.28;71.57
59104;BME280;51449;51.676;5.812;2023-09-08T04:32:58;101605.13;;;18.27;71.38
59104;BME280;51449;51.676;5.812;2023-09-08T04:35:20;101604.31;;;18.26;71.40
59104;BME280;51449;51.676;5.812;2023-09-08T04:37:42;101600.72;;;18.26;71.32
59104;BME280;51449;51.676;5.812;2023-09-08T04:40:05;101605.50;;;18.25;71.35
59104;BME280;51449;51.676;5.812;2023-09-08T04:42:29;101598.66;;;18.23;71.63
59104;BME280;51449;51.676;5.812;2023-09-08T04:44:53;101611.44;;;18.24;71.63
59104;BME280;51449;51.676;5.812;2023-09-08T04:47:16;101597.47;;;18.24;71.48
59104;BME280;51449;51.676;5.812;2023-09-08T04:49:38;101608.63;;;18.24;71.59
59104;BME280;51449;51.676;5.812;2023-09-08T04:52:00;101598.31;;;18.24;71.69
59104;BME280;51449;51.676;5.812;2023-09-08T04:54:23;101603.44;;;18.22;71.61
59104;BME280;51449;51.676;5.812;2023-09-08T04:56:49;101609.03;;;18.22;71.61
59104;BME280;51449;51.676;5.812;2023-09-08T04:59:12;101596.22;;;18.21;71.69
59104;BME280;51449;51.676;5.812;2023-09-08T05:01:35;101606.22;;;18.22;71.88
59104;BME280;51449;51.676;5.812;2023-09-08T05:04:00;101597.88;;;18.22;71.77
59104;BME280;51449;51.676;5.812;2023-09-08T05:06:22;101609.47;;;18.24;71.81
59104;BME280;51449;51.676;5.812;2023-09-08T05:08:44;101604.59;;;18.21;71.68
59104;BME280;51449;51.676;5.812;2023-09-08T05:11:06;101601.81;;;18.21;72.09
59104;BME280;51449;51.676;5.812;2023-09-08T05:13:28;101604.16;;;18.19;71.71
59104;BME280;51449;51.676;5.812;2023-09-08T05:15:54;101608.56;;;18.20;71.80
59104;BME280;51449;51.676;5.812;2023-09-08T05:18:24;101610.56;;;18.20;71.82
59104;BME280;51449;51.676;5.812;2023-09-08T05:20:47;101612.16;;;18.21;71.99
59104;BME280;51449;51.676;5.812;2023-09-08T05:23:09;101611.00;;;18.22;71.98
59104;BME280;51449;51.676;5.812;2023-09-08T05:25:31;101603.44;;;18.22;71.89
59104;BME280;51449;51.676;5.812;2023-09-08T05:27:52;101605.03;;;18.23;71.92
59104;BME280;51449;51.676;5.812;2023-09-08T05:30:15;101610.28;;;18.25;71.99
59104;BME280;51449;51.676;5.812;2023-09-08T05:32:36;101611.88;;;18.26;72.17
59104;BME280;51449;51.676;5.812;2023-09-08T05:34:59;101606.75;;;18.28;72.36
59104;BME280;51449;51.676;5.812;2023-09-08T05:37:21;101616.34;;;18.30;72.20
59104;BME280;51449;51.676;5.812;2023-09-08T05:39:43;101612.41;;;18.31;72.15
59104;BME280;51449;51.676;5.812;2023-09-08T05:42:05;101610.84;;;18.34;72.13
59104;BME280;51449;51.676;5.812;2023-09-08T05:44:28;101612.09;;;18.36;72.21
59104;BME280;51449;51.676;5.812;2023-09-08T05:46:50;101619.00;;;18.43;72.29
59104;BME280;51449;51.676;5.812;2023-09-08T05:49:12;101618.25;;;18.46;72.09
59104;BME280;51449;51.676;5.812;2023-09-08T05:51:36;101612.41;;;18.51;72.44
59104;BME280;51449;51.676;5.812;2023-09-08T05:53:59;101616.03;;;18.55;72.17
59104;BME280;51449;51.676;5.812;2023-09-08T05:56:24;101622.94;;;18.61;72.29
59104;BME280;51449;51.676;5.812;2023-09-08T05:58:51;101620.66;;;18.67;72.25
59104;BME280;51449;51.676;5.812;2023-09-08T06:01:15;101625.94;;;18.72;72.13
59104;BME280;51449;51.676;5.812;2023-09-08T06:03:37;101617.72;;;18.79;72.17
59104;BME280;51449;51.676;5.812;2023-09-08T06:05:59;101621.00;;;18.85;72.44
59104;BME280;51449;51.676;5.812;2023-09-08T06:08:21;101622.31;;;18.91;72.46
59104;BME280;51449;51.676;5.812;2023-09-08T06:10:43;101615.25;;;18.97;72.25
59104;BME280;51449;51.676;5.812;2023-09-08T06:13:05;101614.56;;;19.03;72.46
59104;BME280;51449;51.676;5.812;2023-09-08T06:15:27;101621.06;;;19.11;72.68
59104;BME280;51449;51.676;5.812;2023-09-08T06:17:48;101614.00;;;19.17;72.58
59104;BME280;51449;51.676;5.812;2023-09-08T06:20:11;101622.94;;;19.27;72.65
59104;BME280;51449;51.676;5.812;2023-09-08T06:22:34;101622.25;;;19.33;72.83
59104;BME280;51449;51.676;5.812;2023-09-08T06:24:57;101620.69;;;19.36;73.08
59104;BME280;51449;51.676;5.812;2023-09-08T06:27:18;101623.59;;;19.43;73.38
59104;BME280;51449;51.676;5.812;2023-09-08T06:29:40;101626.50;;;19.50;73.05
59104;BME280;51449;51.676;5.812;2023-09-08T06:32:06;101619.47;;;19.60;73.02
59104;BME280;51449;51.676;5.812;2023-09-08T06:34:28;101622.81;;;19.69;73.36
59104;BME280;51449;51.676;5.812;2023-09-08T06:36:50;101628.19;;;19.81;73.90
59104;BME280;51449;51.676;5.812;2023-09-08T06:39:12;101631.22;;;19.99;74.32
59104;BME280;51449;51.676;5.812;2023-09-08T06:41:34;101625.91;;;20.21;73.88
59104;BME280;51449;51.676;5.812;2023-09-08T06:43:57;101622.19;;;20.43;72.82
59104;BME280;51449;51.676;5.812;2023-09-08T06:46:22;101617.66;;;20.65;71.87
59104;BME280;51449;51.676;5.812;2023-09-08T06:48:43;101619.88;;;20.83;70.91
59104;BME280;51449;51.676;5.812;2023-09-08T06:51:06;101622.03;;;21.00;70.47
59104;BME280;51449;51.676;5.812;2023-09-08T06:53:28;101635.75;;;21.16;70.02
59104;BME280;51449;51.676;5.812;2023-09-08T06:55:52;101631.06;;;21.31;69.74
59104;BME280;51449;51.676;5.812;2023-09-08T06:58:14;101628.03;;;21.47;69.46
59104;BME280;51449;51.676;5.812;2023-09-08T07:00:37;101630.53;;;21.59;68.91
59104;BME280;51449;51.676;5.812;2023-09-08T07:02:59;101631.81;;;21.72;68.88
59104;BME280;51449;51.676;5.812;2023-09-08T07:05:22;101635.13;;;21.85;68.59
59104;BME280;51449;51.676;5.812;2023-09-08T07:07:43;101638.75;;;21.96;68.26
59104;BME280;51449;51.676;5.812;2023-09-08T07:10:06;101644.84;;;22.06;68.29
59104;BME280;51449;51.676;5.812;2023-09-08T07:12:28;101648.09;;;22.18;67.80
59104;BME280;51449;51.676;5.812;2023-09-08T07:14:50;101649.00;;;22.30;67.53
59104;BME280;51449;51.676;5.812;2023-09-08T07:17:11;101637.78;;;22.40;67.62
59104;BME280;51449;51.676;5.812;2023-09-08T07:19:35;101642.66;;;22.54;67.24
59104;BME280;51449;51.676;5.812;2023-09-08T07:21:56;101637.47;;;22.67;67.14
59104;BME280;51449;51.676;5.812;2023-09-08T07:24:18;101640.72;;;22.83;66.82
59104;BME280;51449;51.676;5.812;2023-09-08T07:26:40;101641.13;;;22.96;66.48
59104;BME280;51449;51.676;5.812;2023-09-08T07:29:02;101630.34;;;23.05;66.49
59104;BME280;51449;51.676;5.812;2023-09-08T07:31:24;101634.78;;;23.17;66.08
59104;BME280;51449;51.676;5.812;2023-09-08T07:33:46;101633.56;;;23.25;65.70
59104;BME280;51449;51.676;5.812;2023-09-08T07:36:08;101629.13;;;23.35;65.38
59104;BME280;51449;51.676;5.812;2023-09-08T07:38:32;101633.94;;;23.45;65.11
59104;BME280;51449;51.676;5.812;2023-09-08T07:40:55;101636.75;;;23.60;65.03
59104;BME280;51449;51.676;5.812;2023-09-08T07:43:17;101629.53;;;23.73;65.18
59104;BME280;51449;51.676;5.812;2023-09-08T07:45:39;101626.28;;;23.85;64.99
59104;BME280;51449;51.676;5.812;2023-09-08T07:48:02;101628.63;;;24.01;64.74
59104;BME280;51449;51.676;5.812;2023-09-08T07:50:25;101629.81;;;24.11;64.12
59104;BME280;51449;51.676;5.812;2023-09-08T07:52:50;101622.94;;;24.23;63.97
59104;BME280;51449;51.676;5.812;2023-09-08T07:55:13;101624.09;;;24.32;63.80
59104;BME280;51449;51.676;5.812;2023-09-08T07:57:35;101627.66;;;24.44;63.54
59104;BME280;51449;51.676;5.812;2023-09-08T07:59:57;101628.44;;;24.59;63.64
59104;BME280;51449;51.676;5.812;2023-09-08T08:02:19;101617.06;;;24.73;63.17
59104;BME280;51449;51.676;5.812;2023-09-08T08:04:40;101619.81;;;24.84;62.98
59104;BME280;51449;51.676;5.812;2023-09-08T08:07:02;101634.19;;;24.96;63.04
59104;BME280;51449;51.676;5.812;2023-09-08T08:09:24;101629.69;;;25.10;62.52
59104;BME280;51449;51.676;5.812;2023-09-08T08:11:46;101628.03;;;25.19;62.28
59104;BME280;51449;51.676;5.812;2023-09-08T08:14:08;101624.31;;;25.30;62.07
59104;BME280;51449;51.676;5.812;2023-09-08T08:16:30;101627.00;;;25.44;61.53
59104;BME280;51449;51.676;5.812;2023-09-08T08:18:52;101624.44;;;25.57;61.30
59104;BME280;51449;51.676;5.812;2023-09-08T08:21:14;101627.97;;;25.68;60.58
59104;BME280;51449;51.676;5.812;2023-09-08T08:23:36;101628.31;;;25.74;60.38
59104;BME280;51449;51.676;5.812;2023-09-08T08:26:00;101620.16;;;25.83;60.25
59104;BME280;51449;51.676;5.812;2023-09-08T08:28:21;101624.94;;;25.90;60.33
59104;BME280;51449;51.676;5.812;2023-09-08T08:30:43;101628.06;;;25.99;60.08
59104;BME280;51449;51.676;5.812;2023-09-08T08:33:09;101630.38;;;26.08;59.67
59104;BME280;51449;51.676;5.812;2023-09-08T08:35:32;101623.47;;;26.12;58.91
59104;BME280;51449;51.676;5.812;2023-09-08T08:37:54;101621.38;;;26.16;58.64
59104;BME280;51449;51.676;5.812;2023-09-08T08:40:16;101631.78;;;26.26;58.28
59104;BME280;51449;51.676;5.812;2023-09-08T08:42:38;101630.03;;;26.36;59.01
59104;BME280;51449;51.676;5.812;2023-09-08T08:45:00;101636.31;;;26.47;58.86
59104;BME280;51449;51.676;5.812;2023-09-08T08:47:24;101633.34;;;26.62;59.18
59104;BME280;51449;51.676;5.812;2023-09-08T08:49:47;101623.06;;;26.75;58.94
59104;BME280;51449;51.676;5.812;2023-09-08T08:52:11;101633.78;;;26.87;59.04
59104;BME280;51449;51.676;5.812;2023-09-08T08:54:37;101630.69;;;27.02;58.06
59104;BME280;51449;51.676;5.812;2023-09-08T08:57:02;101630.47;;;27.16;57.64
59104;BME280;51449;51.676;5.812;2023-09-08T08:59:24;101639.22;;;27.29;57.62
59104;BME280;51449;51.676;5.812;2023-09-08T09:01:47;101619.63;;;27.38;57.27
59104;BME280;51449;51.676;5.812;2023-09-08T09:04:10;101629.53;;;27.50;57.00
59104;BME280;51449;51.676;5.812;2023-09-08T09:06:33;101625.34;;;27.58;56.26
59104;BME280;51449;51.676;5.812;2023-09-08T09:08:56;101617.13;;;27.64;56.07
59104;BME280;51449;51.676;5.812;2023-09-08T09:11:18;101614.88;;;27.75;56.06
59104;BME280;51449;51.676;5.812;2023-09-08T09:13:40;101608.28;;;27.85;55.25
59104;BME280;51449;51.676;5.812;2023-09-08T09:16:02;101608.13;;;27.92;54.90
59104;BME280;51449;51.676;5.812;2023-09-08T09:18:25;101616.03;;;28.01;54.25
59104;BME280;51449;51.676;5.812;2023-09-08T09:20:55;101617.50;;;28.09;53.58
59104;BME280;51449;51.676;5.812;2023-09-08T09:23:27;101614.47;;;28.16;53.75
59104;BME280;51449;51.676;5.812;2023-09-08T09:25:50;101617.09;;;28.27;54.38
59104;BME280;51449;51.676;5.812;2023-09-08T09:28:12;101612.00;;;28.38;54.38
59104;BME280;51449;51.676;5.812;2023-09-08T09:30:50;101616.56;;;28.52;53.40
59104;BME280;51449;51.676;5.812;2023-09-08T09:33:14;101612.78;;;28.59;53.07
59104;BME280;51449;51.676;5.812;2023-09-08T09:35:47;101613.84;;;28.65;52.24
59104;BME280;51449;51.676;5.812;2023-09-08T09:38:14;101618.56;;;28.72;52.54
59104;BME280;51449;51.676;5.812;2023-09-08T09:40:37;101615.91;;;28.81;52.43
59104;BME280;51449;51.676;5.812;2023-09-08T09:42:59;101611.59;;;28.93;52.76
59104;BME280;51449;51.676;5.812;2023-09-08T09:45:24;101615.41;;;29.02;52.47
59104;BME280;51449;51.676;5.812;2023-09-08T09:47:47;101620.03;;;29.13;52.57
59104;BME280;51449;51.676;5.812;2023-09-08T09:50:09;101610.00;;;29.25;52.63
59104;BME280;51449;51.676;5.812;2023-09-08T09:52:31;101605.66;;;29.36;52.46
59104;BME280;51449;51.676;5.812;2023-09-08T09:54:53;101612.28;;;29.46;51.33
59104;BME280;51449;51.676;5.812;2023-09-08T09:57:17;101617.78;;;29.53;50.87
59104;BME280;51449;51.676;5.812;2023-09-08T09:59:42;101620.16;;;29.55;50.34
59104;BME280;51449;51.676;5.812;2023-09-08T10:02:03;101616.34;;;29.61;50.78
59104;BME280;51449;51.676;5.812;2023-09-08T10:04:26;101612.53;;;29.68;50.33
59104;BME280;51449;51.676;5.812;2023-09-08T10:06:49;101607.44;;;29.76;50.35
59104;BME280;51449;51.676;5.812;2023-09-08T10:09:13;101610.75;;;29.87;50.02
59104;BME280;51449;51.676;5.812;2023-09-08T10:11:48;101616.03;;;30.01;50.47
59104;BME280;51449;51.676;5.812;2023-09-08T10:14:12;101609.59;;;30.14;51.01
59104;BME280;51449;51.676;5.812;2023-09-08T10:16:38;101612.81;;;30.28;50.24
59104;BME280;51449;51.676;5.812;2023-09-08T10:19:04;101603.53;;;30.41;50.26
59104;BME280;51449;51.676;5.812;2023-09-08T10:21:32;101612.88;;;30.54;49.61
59104;BME280;51449;51.676;5.812;2023-09-08T10:24:04;101598.78;;;30.63;49.16
59104;BME280;51449;51.676;5.812;2023-09-08T10:26:32;101598.53;;;30.70;49.25
59104;BME280;51449;51.676;5.812;2023-09-08T10:28:56;101598.41;;;30.74;48.18
59104;BME280;51449;51.676;5.812;2023-09-08T10:31:18;101600.03;;;30.75;48.09
59104;BME280;51449;51.676;5.812;2023-09-08T10:33:41;101600.69;;;30.79;48.17
59104;BME280;51449;51.676;5.812;2023-09-08T10:36:05;101595.72;;;30.83;47.99
59104;BME280;51449;51.676;5.812;2023-09-08T10:38:32;101597.06;;;30.91;48.26
59104;BME280;51449;51.676;5.812;2023-09-08T10:43:45;101603.06;;;31.06;47.38
59104;BME280;51449;51.676;5.812;2023-09-08T10:46:09;101596.34;;;31.13;47.80
59104;BME280;51449;51.676;5.812;2023-09-08T10:48:41;101598.94;;;31.20;47.31
59104;BME280;51449;51.676;5.812;2023-09-08T10:51:04;101589.03;;;31.25;47.51
59104;BME280;51449;51.676;5.812;2023-09-08T10:53:26;101590.94;;;31.28;47.28
59104;BME280;51449;51.676;5.812;2023-09-08T10:55:49;101597.31;;;31.32;47.29
59104;BME280;51449;51.676;5.812;2023-09-08T10:58:35;101586.59;;;31.36;46.67
59104;BME280;51449;51.676;5.812;2023-09-08T11:01:01;101597.09;;;31.39;46.14
59104;BME280;51449;51.676;5.812;2023-09-08T11:03:27;101584.91;;;31.39;46.28
59104;BME280;51449;51.676;5.812;2023-09-08T11:06:05;101586.06;;;31.41;46.22
59104;BME280;51449;51.676;5.812;2023-09-08T11:08:27;101584.78;;;31.42;45.59
59104;BME280;51449;51.676;5.812;2023-09-08T11:10:50;101592.72;;;31.47;45.98
59104;BME280;51449;51.676;5.812;2023-09-08T11:13:12;101581.09;;;31.54;46.42
59104;BME280;51449;51.676;5.812;2023-09-08T11:15:34;101582.75;;;31.65;46.39
59104;BME280;51449;51.676;5.812;2023-09-08T11:17:55;101577.38;;;31.67;44.94
59104;BME280;51449;51.676;5.812;2023-09-08T11:20:26;101588.78;;;31.67;44.92
59104;BME280;51449;51.676;5.812;2023-09-08T11:22:49;101591.03;;;31.72;45.33
59104;BME280;51449;51.676;5.812;2023-09-08T11:25:11;101594.75;;;31.82;45.86
59104;BME280;51449;51.676;5.812;2023-09-08T11:27:33;101585.47;;;31.90;45.92
59104;BME280;51449;51.676;5.812;2023-09-08T11:29:55;101582.72;;;32.00;45.71
59104;BME280;51449;51.676;5.812;2023-09-08T11:32:18;101586.53;;;32.06;44.81
59104;BME280;51449;51.676;5.812;2023-09-08T11:34:40;101584.97;;;32.05;44.86
59104;BME280;51449;51.676;5.812;2023-09-08T11:37:13;101585.41;;;32.03;43.83
59104;BME280;51449;51.676;5.812;2023-09-08T11:39:38;101583.63;;;31.96;43.93
59104;BME280;51449;51.676;5.812;2023-09-08T11:42:04;101589.22;;;32.00;43.57
59104;BME280;51449;51.676;5.812;2023-09-08T11:44:26;101584.97;;;32.05;44.00
59104;BME280;51449;51.676;5.812;2023-09-08T11:46:48;101586.88;;;32.08;43.77
59104;BME280;51449;51.676;5.812;2023-09-08T11:49:10;101582.28;;;32.10;43.02
59104;BME280;51449;51.676;5.812;2023-09-08T11:51:32;101591.63;;;32.11;43.03
59104;BME280;51449;51.676;5.812;2023-09-08T11:53:54;101584.69;;;32.12;42.74
59104;BME280;51449;51.676;5.812;2023-09-08T11:56:16;101585.34;;;32.16;42.60
59104;BME280;51449;51.676;5.812;2023-09-08T11:58:38;101582.81;;;32.18;42.50
59104;BME280;51449;51.676;5.812;2023-09-08T12:01:00;101587.13;;;32.23;42.49
59104;BME280;51449;51.676;5.812;2023-09-08T12:03:24;101572.72;;;32.26;42.61
59104;BME280;51449;51.676;5.812;2023-09-08T12:05:51;101573.38;;;32.30;42.35
59104;BME280;51449;51.676;5.812;2023-09-08T12:08:13;101573.41;;;32.39;43.18
59104;BME280;51449;51.676;5.812;2023-09-08T12:10:39;101569.38;;;32.50;43.57
59104;BME280;51449;51.676;5.812;2023-09-08T12:13:02;101570.66;;;32.58;42.67
59104;BME280;51449;51.676;5.812;2023-09-08T12:15:38;101569.72;;;32.61;42.06
59104;BME280;51449;51.676;5.812;2023-09-08T12:18:02;101564.66;;;32.65;42.68
59104;BME280;51449;51.676;5.812;2023-09-08T12:20:25;101567.50;;;32.65;42.59
59104;BME280;51449;51.676;5.812;2023-09-08T12:22:49;101571.97;;;32.66;42.40
59104;BME280;51449;51.676;5.812;2023-09-08T12:25:11;101570.06;;;32.63;41.91
59104;BME280;51449;51.676;5.812;2023-09-08T12:27:36;101561.34;;;32.67;42.54
59104;BME280;51449;51.676;5.812;2023-09-08T12:30:00;101567.69;;;32.71;42.18
59104;BME280;51449;51.676;5.812;2023-09-08T12:32:24;101563.13;;;32.73;42.28